Whistler, Alabama
Current Conditions -  °F | °C
As of 11:56 AM on Thursday 18 Dec 2014 (Local Time) from KMOB Reporting Station
Broken Clouds Broken Clouds  
Wind Chill: 60°   Ceiling: 25000
Heat Index: 60°   Visibility: 10mi
Dew Point: 41°   Wind: 3mph
Humidity: 49%   Direction: 60°ENE
Pressure: 30.17"   Gusts: NA
Location:  30.7534°N, 88.1122°W
Report Text: KMOB 181756Z 06003KT 10SM FEW100 BKN250 16/05 A3017 RMK AO2 SLP216 T01560050 10156 20050 58023
Loading
Personal Weather Stations






























Interactive Weather Map New forecast layout! Learn more

10-Day Weather Forecast

Advertisements
Track Severe Weather on mobile